Terminal Aerodrome Forecast
Issued by NWS Twin Cities, MN

Home | Current Version | Previous Version | Text Only | Print | Product List | Glossary Off
Versions: 1 2 3 4 5 6 7 8 9 10 11 12 13 14

000
FTUS43 KMPX 211120
TAFSTC
TAF
KSTC 211120Z 2112/2212 02006KT 2SM -RA BR OVC004
     FM211600 31010G16KT 6SM -DZ BR OVC007
     FM211900 30012G20KT P6SM VCSH OVC015
     FM220000 29008KT P6SM OVC025
     FM220900 26006KT P6SM BKN035=

USA.gov is the U.S. government's official web portal to all federal, state and local government web resources and services.